Time;durP1;ratioP1;P1;durP2;ratioP2;P2;SDS_P1;SDS_P2;PMS_P1;PMS_P2;Temp;Humidity;BMP_temperature;BMP_pressure;BME280_temperature;BME280_humidity;BME280_pressure;Samples;Min_cycle;Max_cycle;Signal;HPM_P1;HPM_P2
2022/10/23 00:01:35;;;;;;;40.33;20.63;;;;;;;10.70;88.31;95340.84;5089678;28;20166;-81
2022/10/23 00:04:07;;;;;;;51.80;25.80;;;;;;;10.62;88.46;95339.19;5074565;28;20154;-81
2022/10/23 00:06:34;;;;;;;65.80;34.57;;;;;;;10.61;88.17;95340.19;5064365;28;20182;-81
2022/10/23 00:09:00;;;;;;;56.80;26.63;;;;;;;10.57;87.83;95344.22;5068813;28;20634;-80
2022/10/23 00:11:28;;;;;;;59.63;29.87;;;;;;;10.55;88.39;95333.09;5056278;28;20240;-81
2022/10/23 00:13:55;;;;;;;50.33;27.93;;;;;;;10.56;88.31;95339.97;5066239;28;20665;-81
2022/10/23 00:16:21;;;;;;;60.33;28.27;;;;;;;10.42;88.40;95301.47;5074373;28;20194;-81
2022/10/23 00:18:47;;;;;;;62.13;30.77;;;;;;;10.55;88.00;95312.84;5071958;28;20586;-80
2022/10/23 00:21:14;;;;;;;83.43;43.80;;;;;;;10.51;87.95;95305.53;5056439;28;20212;-81
2022/10/23 00:23:40;;;;;;;99.57;55.97;;;;;;;10.69;87.68;95310.25;5056130;28;20182;-81
2022/10/23 00:26:07;;;;;;;109.50;61.10;;;;;;;10.68;87.98;95321.78;5056589;28;20182;-81
2022/10/23 00:28:33;;;;;;;71.27;41.33;;;;;;;10.71;87.99;95316.13;5065602;28;20243;-81
2022/10/23 00:31:05;;;;;;;84.73;42.83;;;;;;;10.66;87.86;95311.44;5068832;28;20693;-81
2022/10/23 00:33:31;;;;;;;90.57;45.13;;;;;;;10.59;88.03;95329.06;5065942;28;20239;-81
2022/10/23 00:35:57;;;;;;;84.03;50.10;;;;;;;10.56;88.03;95327.63;5069834;28;20253;-81
2022/10/23 00:38:22;;;;;;;82.83;46.83;;;;;;;10.63;87.87;95321.59;5069679;28;20281;-81
2022/10/23 00:40:48;;;;;;;118.80;54.10;;;;;;;10.68;87.95;95327.03;5070225;28;20649;-81
2022/10/23 00:43:23;;;;;;;102.53;55.07;;;;;;;10.64;87.80;95321.34;5073475;28;20181;-81
2022/10/23 00:45:48;;;;;;;111.43;57.70;;;;;;;10.56;87.79;95295.22;5073531;28;20621;-81
2022/10/23 00:48:14;;;;;;;110.00;65.10;;;;;;;10.66;87.88;95310.63;5084366;28;20171;-81
2022/10/23 00:50:41;;;;;;;104.67;61.10;;;;;;;10.72;87.66;95325.66;5055824;28;20256;-81
2022/10/23 00:53:09;;;;;;;95.43;56.80;;;;;;;10.73;87.66;95321.97;5053992;28;20174;-81
2022/10/23 00:55:37;;;;;;;80.17;47.93;;;;;;;10.71;87.75;95314.31;5058654;28;20178;-81
2022/10/23 00:58:03;;;;;;;87.70;46.73;;;;;;;10.57;88.08;95310.00;5066166;28;20195;-81
2022/10/23 01:00:50;;;;;;;141.17;81.90;;;;;;;10.44;88.93;95307.34;5052928;28;20152;-80
2022/10/23 01:03:17;;;;;;;66.50;37.80;;;;;;;10.20;90.09;95306.06;5052476;28;20646;-80
2022/10/23 01:05:58;;;;;;;57.00;37.17;;;;;;;10.00;90.36;95284.09;5061368;28;20175;-80
2022/10/23 01:09:06;;;;;;;57.23;29.80;;;;;;;10.08;91.32;95297.91;5057293;28;20175;-80
2022/10/23 01:11:43;;;;;;;104.63;67.00;;;;;;;10.16;90.74;95302.16;4971782;28;20213;-80
2022/10/23 01:14:26;;;;;;;50.60;32.00;;;;;;;10.31;89.37;95294.97;5047509;28;20272;-80
2022/10/23 01:17:19;;;;;;;38.67;21.87;;;;;;;10.63;88.31;95338.19;5052525;28;20155;-80
2022/10/23 01:20:13;;;;;;;34.73;20.10;;;;;;;10.74;88.23;95349.94;5062070;28;20170;-80
2022/10/23 01:23:00;;;;;;;39.90;18.73;;;;;;;10.93;86.18;95347.34;5055375;28;20178;-79
2022/10/23 01:25:34;;;;;;;37.80;18.23;;;;;;;10.90;85.92;95346.94;5049994;28;20167;-80
2022/10/23 01:28:06;;;;;;;32.43;18.20;;;;;;;10.61;86.33;95311.25;5052784;28;20209;-80
2022/10/23 01:30:34;;;;;;;35.60;18.07;;;;;;;10.94;85.98;95366.59;5053569;28;20562;-80
2022/10/23 01:33:11;;;;;;;35.70;19.17;;;;;;;11.00;85.96;95378.97;5054230;28;20597;-80
2022/10/23 01:35:47;;;;;;;44.80;21.80;;;;;;;10.95;86.07;95379.56;5063678;28;20405;-80
2022/10/23 01:38:22;;;;;;;38.23;20.60;;;;;;;10.95;86.23;95384.03;5067729;28;20197;-81
2022/10/23 01:41:13;;;;;;;37.73;21.43;;;;;;;10.82;86.58;95376.91;5069174;28;20162;-81
2022/10/23 01:44:10;;;;;;;38.97;19.37;;;;;;;10.79;87.45;95392.31;5049004;28;20206;-80
2022/10/23 01:46:36;;;;;;;39.63;19.80;;;;;;;10.71;88.24;95398.56;5043715;28;20190;-80
2022/10/23 01:49:05;;;;;;;36.10;20.50;;;;;;;10.54;88.58;95384.94;5054825;28;20171;-79
2022/10/23 01:51:33;;;;;;;37.43;19.37;;;;;;;10.40;89.57;95367.47;5068760;28;20213;-80
2022/10/23 01:54:00;;;;;;;35.23;19.93;;;;;;;10.38;89.31;95340.53;5071988;28;20258;-80
2022/10/23 01:56:30;;;;;;;35.97;19.47;;;;;;;10.31;89.39;95318.63;5071229;28;20656;-80
2022/10/23 01:59:00;;;;;;;35.13;19.50;;;;;;;10.60;89.73;95367.53;5067252;28;20174;-80
2022/10/23 02:01:29;;;;;;;35.80;18.70;;;;;;;10.36;89.91;95332.03;5063899;28;20221;-80
2022/10/23 02:03:56;;;;;;;42.30;22.33;;;;;;;10.76;89.52;95387.41;5064677;28;20197;-80
2022/10/23 02:06:22;;;;;;;34.97;20.97;;;;;;;10.86;89.16;95386.03;5060920;28;20175;-80
2022/10/23 02:08:47;;;;;;;48.70;19.37;;;;;;;11.03;87.86;95393.56;5051169;28;20179;-81
2022/10/23 02:11:15;;;;;;;30.73;17.60;;;;;;;11.16;87.08;95396.22;5052401;28;20273;-80
2022/10/23 02:14:06;;;;;;;34.60;17.80;;;;;;;11.18;86.76;95391.56;5054102;28;20175;-81
2022/10/23 02:16:49;;;;;;;36.33;19.30;;;;;;;11.17;87.08;95403.09;5065722;28;20183;-81
2022/10/23 02:19:17;;;;;;;36.97;18.53;;;;;;;11.20;86.70;95403.53;5062370;28;20547;-80
2022/10/23 02:22:12;;;;;;;35.00;17.20;;;;;;;11.21;86.25;95401.72;5058626;28;20183;-80
2022/10/23 02:25:01;;;;;;;36.70;18.23;;;;;;;10.88;86.68;95346.34;5069898;28;20549;-80
2022/10/23 02:27:36;;;;;;;31.57;18.13;;;;;;;11.14;86.61;95393.81;5042142;28;20187;-80
2022/10/23 02:30:12;;;;;;;45.67;19.70;;;;;;;11.10;86.67;95386.47;5072038;28;20622;-80
2022/10/23 02:32:43;;;;;;;53.97;27.20;;;;;;;11.09;87.36;95408.56;5072379;28;20170;-80
2022/10/23 02:35:09;;;;;;;50.03;23.33;;;;;;;10.96;88.26;95417.28;5063372;28;20254;-80
2022/10/23 02:37:35;;;;;;;42.70;21.10;;;;;;;10.70;89.46;95422.47;5051873;28;20171;-80
2022/10/23 02:40:02;;;;;;;42.37;23.07;;;;;;;10.57;90.22;95426.66;5065134;28;20196;-80
2022/10/23 02:43:06;;;;;;;39.23;20.80;;;;;;;10.51;90.86;95418.72;5065277;28;20550;-80
2022/10/23 02:45:56;;;;;;;38.90;21.63;;;;;;;10.50;91.17;95420.56;5059417;28;20182;-81
2022/10/23 02:48:31;;;;;;;36.47;18.47;;;;;;;10.42;91.24;95399.66;5056040;28;20248;-80
2022/10/23 02:51:09;;;;;;;34.20;18.60;;;;;;;10.45;91.47;95401.09;5088156;28;20222;-80
2022/10/23 02:53:37;;;;;;;38.97;19.57;;;;;;;10.65;91.35;95415.13;5056368;28;20223;-80
2022/10/23 02:56:16;;;;;;;37.70;17.97;;;;;;;10.56;90.74;95385.53;5063941;28;20171;-80
2022/10/23 02:58:53;;;;;;;31.93;17.67;;;;;;;10.81;90.09;95414.00;5074140;28;20170;-80
2022/10/23 03:01:26;;;;;;;34.33;19.20;;;;;;;10.90;89.61;95412.78;5074453;28;20174;-80
2022/10/23 03:03:58;;;;;;;31.07;18.13;;;;;;;10.91;88.86;95409.94;5057755;28;20236;-80
2022/10/23 03:06:24;;;;;;;31.63;16.83;;;;;;;10.92;88.37;95403.66;5054982;28;20195;-80
2022/10/23 03:08:58;;;;;;;29.03;16.93;;;;;;;10.92;88.18;95414.22;5055087;28;20175;-80
2022/10/23 03:11:24;;;;;;;29.83;16.10;;;;;;;10.93;88.20;95407.94;5063625;28;20739;-80
2022/10/23 03:13:49;;;;;;;36.80;17.40;;;;;;;10.77;88.36;95394.31;5074368;28;20606;-80
2022/10/23 03:16:15;;;;;;;25.60;14.77;;;;;;;10.46;88.32;95352.72;5065805;28;20201;-80
2022/10/23 03:18:40;;;;;;;24.90;15.07;;;;;;;10.91;88.50;95420.47;5074888;28;20186;-80
2022/10/23 03:21:06;;;;;;;24.70;13.60;;;;;;;10.83;87.81;95419.84;5074983;28;20237;-80
2022/10/23 03:23:31;;;;;;;28.97;14.23;;;;;;;10.58;88.70;95393.25;5072853;28;20201;-80
2022/10/23 03:25:57;;;;;;;29.10;15.60;;;;;;;10.79;88.76;95414.19;5063357;28;20639;-80
2022/10/23 03:28:22;;;;;;;29.63;14.80;;;;;;;10.90;88.57;95420.69;5061047;28;20163;-80
2022/10/23 03:30:48;;;;;;;47.93;23.13;;;;;;;10.93;88.10;95412.38;5065923;28;20652;-80
2022/10/23 03:33:13;;;;;;;25.10;14.93;;;;;;;11.19;87.15;95433.53;5056968;28;20216;-80
2022/10/23 03:35:39;;;;;;;26.50;13.17;;;;;;;11.33;86.29;95440.44;5074516;28;20851;-80
2022/10/23 03:38:04;;;;;;;33.87;14.23;;;;;;;11.43;85.62;95440.03;5074265;28;20669;-80
2022/10/23 03:40:30;;;;;;;28.40;13.23;;;;;;;11.46;85.42;95442.28;5074903;28;20189;-80
2022/10/23 03:42:55;;;;;;;29.00;14.77;;;;;;;11.49;85.64;95441.88;5063272;28;20179;-80
2022/10/23 03:45:20;;;;;;;33.17;14.17;;;;;;;11.38;84.83;95412.66;5063247;28;20194;-80
2022/10/23 03:47:47;;;;;;;25.13;14.60;;;;;;;11.24;84.95;95396.81;5063152;28;20178;-81
2022/10/23 03:50:12;;;;;;;31.83;14.80;;;;;;;11.60;85.12;95445.72;5072528;28;20198;-80
2022/10/23 03:52:38;;;;;;;25.87;13.53;;;;;;;11.59;85.21;95444.09;5072996;28;20162;-81
2022/10/23 03:55:05;;;;;;;25.40;13.40;;;;;;;11.60;84.88;95453.63;5074369;28;20224;-80
2022/10/23 03:57:30;;;;;;;29.37;14.07;;;;;;;11.40;85.27;95437.00;5074121;28;20165;-80
2022/10/23 03:59:56;;;;;;;28.63;14.80;;;;;;;11.44;85.32;95454.84;5072973;28;20238;-80
2022/10/23 04:02:21;;;;;;;27.93;15.97;;;;;;;11.35;85.14;95445.50;5073828;28;20605;-80
2022/10/23 04:04:47;;;;;;;40.77;15.10;;;;;;;11.24;85.37;95448.75;5073752;28;20728;-81
2022/10/23 04:07:13;;;;;;;26.13;14.43;;;;;;;11.08;85.33;95422.75;5073776;28;20165;-80
2022/10/23 04:09:38;;;;;;;23.40;14.63;;;;;;;11.20;85.92;95465.97;5073634;28;20167;-81
2022/10/23 04:12:04;;;;;;;28.53;13.57;;;;;;;11.21;86.25;95470.22;5073870;28;20173;-80
2022/10/23 04:14:29;;;;;;;31.53;14.57;;;;;;;11.20;85.92;95472.03;5064659;28;20183;-80
2022/10/23 04:16:55;;;;;;;26.80;11.00;;;;;;;11.23;84.91;95468.22;5057060;28;20179;-80
2022/10/23 04:19:20;;;;;;;21.03;11.53;;;;;;;11.13;83.03;95452.78;5063103;28;20171;-80
2022/10/23 04:21:46;;;;;;;21.47;10.97;;;;;;;11.30;82.15;95461.13;5064777;28;20175;-80
2022/10/23 04:24:11;;;;;;;16.30;9.53;;;;;;;11.34;81.51;95464.97;5059179;28;20175;-80
2022/10/23 04:26:36;;;;;;;22.50;9.97;;;;;;;11.34;80.57;95457.06;5070427;28;20167;-80
2022/10/23 04:29:02;;;;;;;15.83;8.50;;;;;;;11.49;78.31;95468.25;5073438;28;20210;-81
2022/10/23 04:31:27;;;;;;;13.20;7.67;;;;;;;11.34;77.72;95422.78;5073909;28;20198;-80
2022/10/23 04:33:52;;;;;;;12.23;6.17;;;;;;;11.49;75.81;95417.34;5073478;28;20234;-83
2022/10/23 04:36:18;;;;;;;11.47;6.10;;;;;;;11.96;76.07;95469.91;5073537;28;20536;-81
2022/10/23 04:38:43;;;;;;;12.83;6.27;;;;;;;11.99;75.07;95450.22;5073131;28;20178;-81
2022/10/23 04:41:09;;;;;;;13.20;5.90;;;;;;;12.02;74.97;95437.41;5071975;28;20242;-81
2022/10/23 04:43:34;;;;;;;14.23;6.27;;;;;;;12.27;74.51;95469.28;5073066;28;20625;-81
2022/10/23 04:46:00;;;;;;;13.20;6.57;;;;;;;12.24;74.29;95448.56;5073072;28;20181;-81
2022/10/23 04:48:25;;;;;;;11.20;5.53;;;;;;;12.28;73.57;95444.47;5073013;28;20162;-81
2022/10/23 04:50:56;;;;;;;10.50;5.20;;;;;;;12.43;72.97;95457.47;5072882;28;20561;-81
2022/10/23 04:53:22;;;;;;;11.83;5.53;;;;;;;12.21;72.92;95405.91;5073209;28;20217;-81
2022/10/23 04:55:51;;;;;;;16.00;6.07;;;;;;;12.41;72.62;95441.81;5073233;28;20159;-81
2022/10/23 04:58:17;;;;;;;15.10;6.47;;;;;;;12.61;72.55;95467.38;5053141;28;20170;-81
2022/10/23 05:00:42;;;;;;;16.97;7.23;;;;;;;12.56;71.88;95472.44;5057797;28;20179;-81
2022/10/23 05:03:08;;;;;;;14.00;6.33;;;;;;;12.52;71.81;95460.69;5064776;28;20183;-81
2022/10/23 05:05:33;;;;;;;14.53;6.77;;;;;;;12.68;71.55;95486.66;5078843;28;20170;-81
2022/10/23 05:07:58;;;;;;;14.70;6.80;;;;;;;12.56;71.63;95467.16;5061583;28;20175;-81
2022/10/23 05:10:24;;;;;;;17.67;6.27;;;;;;;12.27;70.65;95400.66;5052115;28;20194;-81
2022/10/23 05:12:49;;;;;;;14.37;6.63;;;;;;;12.27;69.60;95424.41;5053893;28;20152;-84
2022/10/23 05:15:15;;;;;;;13.27;7.33;;;;;;;12.72;70.23;95483.38;5054861;28;20640;-86
2022/10/23 05:17:44;;;;;;;18.10;8.30;;;;;;;12.27;69.32;95405.94;5068051;28;20175;-84
2022/10/23 05:20:15;;;;;;;21.27;9.23;;;;;;;12.73;69.82;95466.50;5053118;28;20674;-83
2022/10/23 05:22:43;;;;;;;20.57;9.47;;;;;;;12.46;69.78;95407.66;5051212;28;20258;-84
2022/10/23 05:25:08;;;;;;;17.37;8.17;;;;;;;12.74;69.67;95435.59;5052622;28;20189;-83
2022/10/23 05:27:34;;;;;;;23.23;7.97;;;;;;;13.32;69.39;95505.09;5069163;28;20171;-83
2022/10/23 05:29:59;;;;;;;16.67;8.50;;;;;;;13.11;67.57;95455.16;5052580;28;20198;-84
2022/10/23 05:32:28;;;;;;;15.60;8.13;;;;;;;13.63;68.09;95509.63;5052642;28;20669;-84
2022/10/23 05:34:54;;;;;;;17.57;7.30;;;;;;;13.43;68.08;95456.00;5052700;28;20170;-84
2022/10/23 05:37:20;;;;;;;14.97;7.10;;;;;;;13.81;66.38;95495.66;5065505;28;20171;-84
2022/10/23 05:39:45;;;;;;;16.33;7.47;;;;;;;13.91;66.54;95494.16;5060932;28;20210;-83
2022/10/23 05:42:11;;;;;;;20.30;8.13;;;;;;;13.69;66.71;95442.59;5061552;28;20175;-82
2022/10/23 05:44:36;;;;;;;16.17;6.63;;;;;;;14.02;67.28;95491.81;5063179;28;20175;-83
2022/10/23 05:47:02;;;;;;;14.73;5.40;;;;;;;14.18;67.10;95531.03;5065116;28;20274;-83
2022/10/23 05:49:27;;;;;;;14.67;6.27;;;;;;;14.33;67.59;95557.97;5065442;28;20175;-82
2022/10/23 05:51:53;;;;;;;15.00;7.43;;;;;;;14.56;68.55;95552.91;5061066;28;20202;-82
2022/10/23 05:54:18;;;;;;;12.40;7.17;;;;;;;14.43;68.28;95505.34;5061466;28;20298;-86
2022/10/23 05:56:43;;;;;;;14.37;5.67;;;;;;;14.71;68.33;95536.66;5073881;28;20210;-85
2022/10/23 05:59:09;;;;;;;15.20;5.90;;;;;;;14.52;68.32;95504.06;5064888;28;20176;-85
2022/10/23 06:01:36;;;;;;;16.57;6.70;;;;;;;14.45;68.91;95491.88;5054556;28;20175;-83
2022/10/23 06:04:02;;;;;;;11.37;5.70;;;;;;;15.17;69.96;95572.47;5065006;28;20589;-82
2022/10/23 06:06:28;;;;;;;10.73;5.40;;;;;;;15.28;69.15;95551.34;5063417;28;20254;-83
2022/10/23 06:08:53;;;;;;;15.10;6.87;;;;;;;15.17;69.59;95514.94;5055745;28;20244;-85
2022/10/23 06:11:19;;;;;;;9.57;5.20;;;;;;;15.41;69.87;95527.28;5052310;28;20580;-86
2022/10/23 06:13:45;;;;;;;9.18;5.63;;;;;;;15.77;70.31;95578.69;5052495;28;20158;-84
2022/10/23 06:16:16;;;;;;;12.43;6.63;;;;;;;15.45;70.22;95522.34;5052278;28;20178;-82
2022/10/23 06:18:42;;;;;;;13.77;6.97;;;;;;;15.85;70.68;95592.47;5061360;28;20160;-83
2022/10/23 06:21:07;;;;;;;13.15;6.03;;;;;;;15.58;71.22;95550.56;5062078;28;20264;-84
2022/10/23 06:23:35;;;;;;;11.77;5.38;;;;;;;15.84;71.40;95596.16;5060058;28;20677;-83
2022/10/23 06:26:01;;;;;;;9.32;5.75;;;;;;;15.84;72.26;95592.69;5064062;28;20179;-84
2022/10/23 06:28:26;;;;;;;18.65;5.32;;;;;;;15.81;72.93;95599.28;5072133;28;20171;-83
2022/10/23 06:30:52;;;;;;;18.73;5.72;;;;;;;15.76;73.25;95587.69;5065373;28;20195;-83
2022/10/23 06:33:18;;;;;;;13.15;5.70;;;;;;;15.86;73.44;95595.94;5071974;28;20182;-82
2022/10/23 06:35:43;;;;;;;8.35;4.78;;;;;;;15.52;73.47;95524.91;5060966;28;20179;-85
2022/10/23 06:38:09;;;;;;;12.45;6.13;;;;;;;15.96;73.74;95600.72;5055363;28;20167;-84
2022/10/23 06:40:36;;;;;;;10.07;5.38;;;;;;;16.87;70.07;95517.88;5055288;28;20666;-85
2022/10/23 06:43:02;;;;;;;8.68;5.47;;;;;;;19.45;62.88;95532.13;5054404;28;20254;-85
2022/10/23 06:45:28;;;;;;;12.23;5.90;;;;;;;23.06;53.70;95557.09;5055604;28;20171;-85
2022/10/23 06:47:54;;;;;;;12.45;4.55;;;;;;;25.65;46.06;95554.31;5064069;28;20160;-87
2022/10/23 06:50:20;;;;;;;9.35;5.28;;;;;;;28.23;41.76;95583.53;5055198;28;20247;-86
2022/10/23 06:52:45;;;;;;;11.00;4.50;;;;;;;30.00;37.85;95581.84;5053925;28;20168;-88
2022/10/23 06:55:11;;;;;;;5.75;4.10;;;;;;;30.67;35.18;95541.47;5053958;28;20231;-87
2022/10/23 06:57:36;;;;;;;12.40;5.50;;;;;;;31.92;32.46;95568.47;5055529;28;20247;-88
2022/10/23 07:00:03;;;;;;;12.40;4.95;;;;;;;33.35;30.68;95614.47;5054171;28;20904;-87
2022/10/23 07:02:28;;;;;;;7.53;4.47;;;;;;;34.23;27.69;95559.22;5055248;28;20166;-89
2022/10/23 07:04:54;;;;;;;11.80;5.88;;;;;;;33.68;27.96;95595.28;5054987;28;20561;-88
2022/10/23 07:07:19;;;;;;;9.20;5.88;;;;;;;31.39;30.45;95564.38;5055778;28;20232;-89
2022/10/23 07:09:44;;;;;;;9.73;5.53;;;;;;;28.91;34.50;95545.38;5064608;28;20175;-88
2022/10/23 07:12:10;;;;;;;10.73;4.85;;;;;;;26.54;38.40;95565.25;5065193;28;20175;-87
2022/10/23 07:14:36;;;;;;;11.75;5.10;;;;;;;24.50;42.65;95538.16;5062040;28;20174;-87
2022/10/23 07:17:01;;;;;;;10.73;4.85;;;;;;;23.94;45.23;95552.75;5070224;28;20174;-87
2022/10/23 07:19:27;;;;;;;12.43;4.93;;;;;;;24.23;45.33;95566.31;5074815;28;20166;-88
2022/10/23 07:21:52;;;;;;;10.70;5.05;;;;;;;24.94;45.40;95560.41;5073441;28;20170;-87
2022/10/23 07:24:17;;;;;;;8.57;3.92;;;;;;;25.91;42.97;95549.38;5074915;28;20166;-87
2022/10/23 07:26:44;;;;;;;7.07;4.80;;;;;;;26.82;41.13;95552.63;5073506;28;20201;-88
2022/10/23 07:29:11;;;;;;;8.10;5.20;;;;;;;27.39;39.53;95591.94;5056273;28;20232;-88
2022/10/23 07:31:37;;;;;;;7.50;4.60;;;;;;;27.04;39.40;95579.88;5053487;28;20218;-88
2022/10/23 07:34:03;;;;;;;8.90;4.95;;;;;;;26.61;40.62;95557.59;5066099;28;20551;-87
2022/10/23 07:36:30;;;;;;;5.93;4.53;;;;;;;26.81;40.07;95613.22;5056186;28;20672;-85
2022/10/23 07:38:55;;;;;;;7.32;3.90;;;;;;;26.19;39.84;95580.88;5053742;28;20174;-87
2022/10/23 07:41:20;;;;;;;8.30;4.25;;;;;;;25.58;41.61;95586.19;5060671;28;20203;-87
2022/10/23 07:43:46;;;;;;;8.98;4.57;;;;;;;24.92;42.62;95599.50;5066268;28;20239;-87
2022/10/23 07:46:12;;;;;;;8.55;4.30;;;;;;;24.43;44.39;95555.44;5054798;28;20181;-87
2022/10/23 07:48:38;;;;;;;7.97;4.38;;;;;;;24.21;45.62;95532.72;5052725;28;20262;-87
2022/10/23 07:51:12;;;;;;;9.48;4.93;;;;;;;24.52;44.42;95538.69;5053914;28;20191;-87
2022/10/23 07:53:38;;;;;;;9.35;4.72;;;;;;;25.04;43.83;95598.06;5065424;28;20225;-86
2022/10/23 07:56:12;;;;;;;7.80;4.57;;;;;;;24.55;43.01;95530.03;5069622;28;20189;-87
2022/10/23 07:58:37;;;;;;;13.55;4.95;;;;;;;24.59;43.14;95531.06;5056281;28;20171;-87
2022/10/23 08:01:16;;;;;;;11.80;4.20;;;;;;;24.46;43.41;95529.84;5068892;28;20177;-86
2022/10/23 08:03:42;;;;;;;11.88;3.88;;;;;;;24.53;43.05;95546.47;5053433;28;20629;-88
2022/10/23 08:06:07;;;;;;;12.60;4.35;;;;;;;24.42;43.75;95531.47;5053685;28;20245;-91
2022/10/23 08:08:33;;;;;;;6.55;4.13;;;;;;;24.03;43.69;95477.66;5072409;28;20678;-87
2022/10/23 08:10:58;;;;;;;13.57;4.13;;;;;;;24.55;45.25;95560.47;5057452;28;20199;-84
2022/10/23 08:13:24;;;;;;;6.93;3.90;;;;;;;24.80;44.50;95594.47;5059673;28;20182;-85
2022/10/23 08:15:51;;;;;;;16.27;4.32;;;;;;;24.67;45.13;95603.19;5057223;28;20646;-84
2022/10/23 08:18:17;;;;;;;16.48;4.32;;;;;;;24.42;45.07;95561.91;5053855;28;20530;-84
2022/10/23 08:20:44;;;;;;;8.38;4.35;;;;;;;24.72;44.21;95603.16;5074018;28;20177;-83
2022/10/23 08:23:11;;;;;;;11.55;3.33;;;;;;;24.68;44.88;95602.09;5060826;28;20694;-85
2022/10/23 08:25:38;;;;;;;7.32;4.28;;;;;;;24.68;45.54;95588.63;5055005;28;20183;-84
2022/10/23 08:28:05;;;;;;;31.35;4.30;;;;;;;24.90;45.07;95602.47;5065235;28;20178;-85
2022/10/23 08:30:30;;;;;;;9.65;3.70;;;;;;;25.00;45.86;95596.19;5059521;28;20277;-87
2022/10/23 08:32:55;;;;;;;9.82;3.88;;;;;;;25.18;45.17;95601.69;5060343;28;20685;-85
2022/10/23 08:35:21;;;;;;;10.65;3.35;;;;;;;25.10;44.26;95575.34;5052324;28;20243;-83
2022/10/23 08:37:48;;;;;;;11.35;3.55;;;;;;;25.23;43.80;95597.34;5051639;28;20206;-85
2022/10/23 08:40:17;;;;;;;10.00;3.65;;;;;;;24.92;44.60;95546.44;5051290;28;20198;-81
2022/10/23 08:42:48;;;;;;;9.32;3.53;;;;;;;25.25;44.20;95593.28;5058652;28;20189;-80
2022/10/23 08:45:35;;;;;;;7.78;3.22;;;;;;;25.22;43.82;95579.56;5062355;28;20276;-81
2022/10/23 08:48:11;;;;;;;13.13;3.33;;;;;;;25.00;44.37;95536.91;5058915;28;20613;-81
2022/10/23 08:50:39;;;;;;;5.13;2.95;;;;;;;25.40;44.26;95592.31;5059298;28;20201;-83
2022/10/23 08:53:45;;;;;;;9.95;3.53;;;;;;;25.43;43.12;95581.75;5057818;28;20179;-81
2022/10/23 08:56:23;;;;;;;14.05;3.78;;;;;;;25.24;44.07;95580.09;5045416;28;20199;-82
2022/10/23 08:58:54;;;;;;;11.05;3.40;;;;;;;25.07;44.25;95592.13;5054272;28;20182;-80
2022/10/23 09:01:29;;;;;;;11.18;3.67;;;;;;;24.89;44.66;95565.84;5058170;28;20187;-83
2022/10/23 09:03:55;;;;;;;12.95;3.85;;;;;;;24.48;44.89;95541.13;5054751;28;20194;-83
2022/10/23 09:06:53;;;;;;;8.93;2.70;;;;;;;24.71;44.96;95583.50;5058614;28;20187;-83
2022/10/23 09:09:30;;;;;;;8.75;3.22;;;;;;;24.53;45.43;95591.44;5023966;28;20718;-83
2022/10/23 09:12:11;;;;;;;3.70;2.75;;;;;;;24.46;45.10;95599.03;5061646;28;20198;-83
2022/10/23 09:14:45;;;;;;;5.07;2.92;;;;;;;24.48;45.44;95600.34;5063841;28;20198;-85
2022/10/23 09:17:28;;;;;;;5.40;2.75;;;;;;;24.44;45.46;95593.94;5073684;28;20193;-85
2022/10/23 09:20:25;;;;;;;6.28;2.65;;;;;;;24.37;44.95;95591.56;5052719;28;20717;-84
2022/10/23 09:22:58;;;;;;;6.28;2.75;;;;;;;24.21;45.50;95578.47;5059327;28;20175;-82
2022/10/23 09:25:28;;;;;;;13.05;3.53;;;;;;;24.08;45.98;95575.28;5060206;28;20178;-83
2022/10/23 09:28:00;;;;;;;3.58;3.03;;;;;;;23.78;46.10;95577.31;5058276;28;20567;-83
2022/10/23 09:30:32;;;;;;;5.45;3.20;;;;;;;23.49;47.37;95553.78;5059689;28;20250;-83
2022/10/23 09:33:00;;;;;;;6.13;3.67;;;;;;;23.33;48.49;95544.13;5058239;28;20532;-81
2022/10/23 09:35:28;;;;;;;9.65;4.00;;;;;;;23.56;48.24;95583.03;5059287;28;20202;-81
2022/10/23 09:37:55;;;;;;;3.78;3.47;;;;;;;23.50;48.14;95579.59;5056439;28;20179;-80
2022/10/23 09:40:34;;;;;;;6.82;2.60;;;;;;;23.46;48.66;95577.66;5054927;28;20183;-82
2022/10/23 09:43:03;;;;;;;7.43;4.03;;;;;;;23.29;48.24;95562.66;5059703;28;20684;-81
2022/10/23 09:45:34;;;;;;;7.50;3.88;;;;;;;23.25;48.25;95576.94;5059302;28;20229;-80
2022/10/23 09:48:18;;;;;;;3.92;2.78;;;;;;;23.04;48.22;95559.22;5061490;28;20174;-81
2022/10/23 09:50:46;;;;;;;9.38;2.85;;;;;;;23.14;47.99;95581.53;5057258;28;20194;-82
2022/10/23 09:53:30;;;;;;;7.03;2.45;;;;;;;22.77;48.13;95519.25;5058622;28;20183;-81
2022/10/23 09:56:03;;;;;;;5.18;2.25;;;;;;;22.99;47.83;95573.50;5054194;28;20182;-80
2022/10/23 09:58:30;;;;;;;9.27;2.78;;;;;;;22.82;47.86;95546.94;5059253;28;20265;-80
2022/10/23 10:00:56;;;;;;;8.05;2.40;;;;;;;22.72;47.79;95538.03;5064215;28;20244;-81
2022/10/23 10:03:23;;;;;;;7.53;2.92;;;;;;;22.91;48.67;95557.94;5058854;28;20654;-81
2022/10/23 10:05:57;;;;;;;3.83;2.00;;;;;;;22.90;47.29;95559.81;5060027;28;20265;-80
2022/10/23 10:08:45;;;;;;;8.75;2.53;;;;;;;22.87;46.70;95552.28;5054092;28;20216;-80
2022/10/23 10:11:19;;;;;;;3.92;2.85;;;;;;;22.47;47.65;95495.91;5056994;28;20187;-81
2022/10/23 10:14:08;;;;;;;10.20;4.53;;;;;;;22.77;48.28;95540.75;5057223;28;20179;-82
2022/10/23 10:16:43;;;;;;;5.18;2.10;;;;;;;22.86;47.93;95552.53;5066669;28;20227;-82
2022/10/23 10:19:25;;;;;;;5.35;2.60;;;;;;;22.62;47.53;95513.88;5064384;28;20175;-84
2022/10/23 10:22:18;;;;;;;4.88;2.42;;;;;;;22.83;46.16;95542.38;5063971;28;20544;-82
2022/10/23 10:25:13;;;;;;;3.88;2.25;;;;;;;22.74;45.52;95550.16;5067321;28;20183;-80
2022/10/23 10:28:04;;;;;;;6.03;2.00;;;;;;;22.62;45.63;95541.53;5061923;28;20186;-80
2022/10/23 10:30:48;;;;;;;3.85;2.00;;;;;;;22.56;46.08;95523.81;5066695;28;20225;-80
2022/10/23 10:33:43;;;;;;;4.38;1.85;;;;;;;22.62;44.79;95540.72;5077992;28;20288;-80
2022/10/23 10:36:38;;;;;;;10.05;2.30;;;;;;;22.48;45.22;95517.13;5066545;28;20181;-80
2022/10/23 10:39:12;;;;;;;4.93;1.92;;;;;;;22.22;44.56;95477.16;5065984;28;20166;-80
2022/10/23 10:42:16;;;;;;;3.95;2.47;;;;;;;22.46;45.26;95537.25;5057482;28;20167;-81
2022/10/23 10:45:17;;;;;;;3.50;2.10;;;;;;;22.38;45.40;95532.41;5031579;28;20188;-81
2022/10/23 10:48:15;;;;;;;3.55;2.60;;;;;;;22.27;46.58;95530.78;5027274;28;20218;-81
2022/10/23 10:50:45;;;;;;;3.70;2.03;;;;;;;22.25;46.49;95527.56;5043235;28;20286;-82
2022/10/23 10:53:45;;;;;;;2.47;2.10;;;;;;;21.61;45.72;95410.03;5059259;28;20198;-82
2022/10/23 10:56:17;;;;;;;9.80;2.67;;;;;;;22.28;46.74;95517.13;5068347;28;20190;-83
2022/10/23 10:58:56;;;;;;;3.97;2.03;;;;;;;21.99;46.28;95473.91;5098000;28;20206;-83
2022/10/23 11:01:31;;;;;;;7.22;2.40;;;;;;;22.29;45.86;95513.38;5072212;28;20177;-83
2022/10/23 11:04:18;;;;;;;5.78;2.75;;;;;;;22.28;46.80;95516.31;5051450;28;20629;-88
2022/10/23 11:06:47;;;;;;;4.47;2.60;;;;;;;22.23;46.36;95498.31;5057176;28;20175;-85
2022/10/23 11:09:26;;;;;;;7.15;2.47;;;;;;;22.32;46.42;95499.38;5080377;28;20179;-86
2022/10/23 11:11:51;;;;;;;5.05;2.45;;;;;;;22.09;44.84;95457.81;5059928;28;20281;-88
2022/10/23 11:14:20;;;;;;;2.67;2.15;;;;;;;22.29;44.28;95499.13;5063441;28;20254;-83
2022/10/23 11:17:01;;;;;;;4.13;1.98;;;;;;;22.26;45.04;95505.03;5063096;28;20237;-81
2022/10/23 11:19:36;;;;;;;2.85;1.88;;;;;;;22.23;45.84;95505.59;5060201;28;20177;-81
2022/10/23 11:22:25;;;;;;;3.30;2.13;;;;;;;22.20;46.92;95499.69;5052961;28;20658;-84
2022/10/23 11:25:11;;;;;;;2.15;1.90;;;;;;;21.82;46.15;95447.31;5058399;28;20197;-82
2022/10/23 11:27:52;;;;;;;4.38;2.08;;;;;;;22.16;46.09;95500.47;5043871;28;20174;-81
2022/10/23 11:31:02;;;;;;;5.60;2.10;;;;;;;21.92;46.05;95451.88;5061493;28;20214;-80
2022/10/23 11:33:52;;;;;;;3.88;1.80;;;;;;;22.17;46.56;95486.78;5058067;28;20198;-82
2022/10/23 11:36:39;;;;;;;2.10;1.70;;;;;;;22.17;46.48;95486.78;5070413;28;20170;-82
2022/10/23 11:39:29;;;;;;;2.92;2.08;;;;;;;22.01;47.69;95454.88;5071087;28;20269;-80
2022/10/23 11:42:11;;;;;;;3.45;2.35;;;;;;;22.18;47.72;95479.53;5072190;28;20605;-81
2022/10/23 11:44:39;;;;;;;9.18;2.92;;;;;;;22.21;46.53;95465.59;5053415;28;20289;-82